Other Surface Observations
Issued by NWS Missoula, MT

Home | Current Version | Previous Version | Text Only | Print | Product List | Glossary On
Versions: 1 2 3 4 5 6 7 8 9 10 11 12 13 14 15 16 17 18 19 20 21 22 23 24 25 26 27 28 29 30 31 32 33 34 35 36 37 38 39 40 41 42 43 44 45 46 47 48 49 50
222
SXUS55 KMSO 031143
OSOMSO
MONTANA AWOS SUMMARY
NATIONAL WEATHER SERVICE MISSOULA MT
443 AM MST SAT DEC 3 2016

Montana AWOS Reports

LAUREL      |K6S8 031135Z AUTO 24008KT 40SM 00/M13 A2985 RMK AO1 T00001132
TWIN BRIDGES|K7S1 031135Z AUTO 12005KT 40SM M01/M09 A3000 RMK AO1 T10101093
ROUNDUP     |KRPX 031135Z AUTO 23015G21KT 40SM 02/M08 A2976 RMK AO1 T00171082




USA.gov is the U.S. government's official web portal to all federal, state and local government web resources and services.